Aérodrome :
LOGIN :

S'inscrire | Disclaimer

   EN    FR    IT 

 










Légende :    VFR   VFR Marginal   IFR   IFR Intensif   IFR Très Intensif
Visi : 
Plafond : 
>= 8 km
>= 3000ft
5 à 8 km
1000 à 3000 ft
1500m à 5 km
500 à 1000 ft
800 à 1500m
200 à 500 ft
< 800m
< 200 ft
Symboles :   Orages  Brouillard  Fortes neiges  Fortes précipitations  Vent > 20 kt
SIGMETs :   Divers  Orages  Givrage  Turbulence  Onde Orograph.  Cendres Volcan.






- Altitude de l'aérodrome : 141 ft
- Code IATA : SKS


EKSP - Srydstrup Vojens

DERNIER METAR :
  • 141420Z 09005KT 6000 NSC 05/04 Q1008 TEMPO BKN008

METARs EXPIRÉS :
  • 141350Z 11005KT 6000 SCT006 BKN240 05/04 Q1008 TEMPO BKN008
  • 141334Z 11006KT 6000 SCT006 BKN240 06/05 Q1008 BECMG SCT008
  • 141250Z 10006KT 5000 BR FEW002 BKN005 05/04 Q1008 BECMG SCT008
  • 141220Z 14004KT 110V170 5000 BR FEW002 BKN005 04/04 Q1008 BECMG SCT008
  • 141150Z 13004KT 100V160 4300 BR SCT001 BKN004 05/04 Q1008 NOSIG

TAF TAF EKSP
Valide du 14 à 15h jusqu'au 15 à 15h UTC


141410Z 1415/1515 10008KT 8000 SCT010 BKN200
TEMPO 1415/1418 4000 BR BKN008
TEMPO 1418/1508 4000 BR BKN012
BECMG 1504/1506 08018G30KT
TEMPO 1512/1515 BKN012



MET'MAP, la Météo Aéronautique d'un coup d'oeil ! - Copyright ORBIFLY Décembre 2007 - Disclaimer

ORBIFLY MET'MAP TEAM :

Programmation & Développement : Alexandra Zaïnal
Conception & Développement : Baudouin d'Aumeries
Co-Programmation & Développement : Marc-Olivier Méhu
Soutien technique & logistique : Manuel Goepfert

Contact : metmap@orbifly.com




SOURCES & CREDITS :

   NOAA